sensor_id;sensor_type;location;lat;lon;timestamp;temperature;humidity
51837;DHT22;38941;53.254;6.600;2023-01-30T00:00:49;6.50;99.90
51837;DHT22;38941;53.254;6.600;2023-01-30T00:02:51;6.70;99.90
51837;DHT22;38941;53.254;6.600;2023-01-30T00:04:52;6.50;99.90
51837;DHT22;38941;53.254;6.600;2023-01-30T00:06:52;6.60;99.90
51837;DHT22;38941;53.254;6.600;2023-01-30T00:08:53;6.60;99.90
51837;DHT22;38941;53.254;6.600;2023-01-30T00:10:54;6.60;99.90
51837;DHT22;38941;53.254;6.600;2023-01-30T00:12:55;6.60;99.90
51837;DHT22;38941;53.254;6.600;2023-01-30T00:14:57;6.60;99.90
51837;DHT22;38941;53.254;6.600;2023-01-30T00:16:59;6.70;99.90
51837;DHT22;38941;53.254;6.600;2023-01-30T00:18:59;6.60;99.90
51837;DHT22;38941;53.254;6.600;2023-01-30T00:21:02;6.70;99.90
51837;DHT22;38941;53.254;6.600;2023-01-30T00:23:04;6.70;99.90
51837;DHT22;38941;53.254;6.600;2023-01-30T00:25:05;6.70;99.90
51837;DHT22;38941;53.254;6.600;2023-01-30T00:27:06;6.70;99.90
51837;DHT22;38941;53.254;6.600;2023-01-30T00:29:07;6.90;99.90
51837;DHT22;38941;53.254;6.600;2023-01-30T00:31:08;6.70;99.90
51837;DHT22;38941;53.254;6.600;2023-01-30T00:33:09;6.80;99.90
51837;DHT22;38941;53.254;6.600;2023-01-30T00:35:10;6.70;99.90
51837;DHT22;38941;53.254;6.600;2023-01-30T00:37:11;6.70;99.90
51837;DHT22;38941;53.254;6.600;2023-01-30T00:39:12;6.70;99.90
51837;DHT22;38941;53.254;6.600;2023-01-30T00:41:13;6.70;99.90
51837;DHT22;38941;53.254;6.600;2023-01-30T00:43:16;6.90;99.90
51837;DHT22;38941;53.254;6.600;2023-01-30T00:45:37;6.80;99.90
51837;DHT22;38941;53.254;6.600;2023-01-30T00:47:58;6.70;99.90
51837;DHT22;38941;53.254;6.600;2023-01-30T00:49:59;6.70;99.90
51837;DHT22;38941;53.254;6.600;2023-01-30T00:52:00;6.60;99.90
51837;DHT22;38941;53.254;6.600;2023-01-30T00:54:00;6.60;99.90
51837;DHT22;38941;53.254;6.600;2023-01-30T00:56:01;6.60;99.90
51837;DHT22;38941;53.254;6.600;2023-01-30T00:58:02;6.60;99.90
51837;DHT22;38941;53.254;6.600;2023-01-30T01:00:03;6.60;99.90
51837;DHT22;38941;53.254;6.600;2023-01-30T01:02:04;6.50;99.90
51837;DHT22;38941;53.254;6.600;2023-01-30T01:04:06;6.50;99.90
51837;DHT22;38941;53.254;6.600;2023-01-30T01:06:08;6.50;99.90
51837;DHT22;38941;53.254;6.600;2023-01-30T01:08:10;6.50;99.90
51837;DHT22;38941;53.254;6.600;2023-01-30T01:10:12;6.40;99.90
51837;DHT22;38941;53.254;6.600;2023-01-30T01:12:15;6.40;99.90
51837;DHT22;38941;53.254;6.600;2023-01-30T01:14:16;6.40;99.90
51837;DHT22;38941;53.254;6.600;2023-01-30T01:16:17;6.40;99.90
51837;DHT22;38941;53.254;6.600;2023-01-30T01:18:17;6.50;99.90
51837;DHT22;38941;53.254;6.600;2023-01-30T01:20:18;6.40;99.90
51837;DHT22;38941;53.254;6.600;2023-01-30T01:22:19;6.40;99.90
51837;DHT22;38941;53.254;6.600;2023-01-30T01:24:20;6.40;99.90
51837;DHT22;38941;53.254;6.600;2023-01-30T01:26:21;6.40;99.90
51837;DHT22;38941;53.254;6.600;2023-01-30T01:28:21;6.40;99.90
51837;DHT22;38941;53.254;6.600;2023-01-30T01:30:23;6.40;99.90
51837;DHT22;38941;53.254;6.600;2023-01-30T01:32:25;6.40;99.90
51837;DHT22;38941;53.254;6.600;2023-01-30T01:34:26;6.50;99.90
51837;DHT22;38941;53.254;6.600;2023-01-30T01:36:26;6.50;99.90
51837;DHT22;38941;53.254;6.600;2023-01-30T01:38:27;6.40;99.90
51837;DHT22;38941;53.254;6.600;2023-01-30T01:40:28;6.50;99.90
51837;DHT22;38941;53.254;6.600;2023-01-30T01:42:47;6.50;99.90
51837;DHT22;38941;53.254;6.600;2023-01-30T01:45:12;6.50;99.90
51837;DHT22;38941;53.254;6.600;2023-01-30T01:47:13;6.50;99.90
51837;DHT22;38941;53.254;6.600;2023-01-30T01:49:29;6.50;99.90
51837;DHT22;38941;53.254;6.600;2023-01-30T01:54:08;6.50;99.90
51837;DHT22;38941;53.254;6.600;2023-01-30T01:56:13;6.50;99.90
51837;DHT22;38941;53.254;6.600;2023-01-30T02:00:44;6.50;99.90
51837;DHT22;38941;53.254;6.600;2023-01-30T02:02:56;6.60;99.90
51837;DHT22;38941;53.254;6.600;2023-01-30T02:04:58;6.60;99.90
51837;DHT22;38941;53.254;6.600;2023-01-30T02:07:02;6.60;99.90
51837;DHT22;38941;53.254;6.600;2023-01-30T02:09:07;6.60;99.90
51837;DHT22;38941;53.254;6.600;2023-01-30T02:11:25;6.60;99.90
51837;DHT22;38941;53.254;6.600;2023-01-30T02:13:26;6.60;99.90
51837;DHT22;38941;53.254;6.600;2023-01-30T02:15:27;6.70;99.90
51837;DHT22;38941;53.254;6.600;2023-01-30T02:17:29;6.90;99.90
51837;DHT22;38941;53.254;6.600;2023-01-30T02:20:21;6.70;99.90
51837;DHT22;38941;53.254;6.600;2023-01-30T02:31:45;6.70;99.90
51837;DHT22;38941;53.254;6.600;2023-01-30T02:33:56;6.70;99.90
51837;DHT22;38941;53.254;6.600;2023-01-30T02:36:14;6.70;99.90
51837;DHT22;38941;53.254;6.600;2023-01-30T02:41:18;6.70;99.90
51837;DHT22;38941;53.254;6.600;2023-01-30T02:43:36;6.70;99.90
51837;DHT22;38941;53.254;6.600;2023-01-30T02:45:58;6.70;99.90
51837;DHT22;38941;53.254;6.600;2023-01-30T02:48:03;6.70;99.90
51837;DHT22;38941;53.254;6.600;2023-01-30T02:50:12;6.80;99.90
51837;DHT22;38941;53.254;6.600;2023-01-30T02:52:15;6.80;99.90
51837;DHT22;38941;53.254;6.600;2023-01-30T02:54:16;6.80;99.90
51837;DHT22;38941;53.254;6.600;2023-01-30T02:56:16;6.80;99.90
51837;DHT22;38941;53.254;6.600;2023-01-30T02:58:19;6.80;99.90
51837;DHT22;38941;53.254;6.600;2023-01-30T03:07:32;6.80;99.90
51837;DHT22;38941;53.254;6.600;2023-01-30T03:12:10;6.70;99.90
51837;DHT22;38941;53.254;6.600;2023-01-30T03:14:23;6.70;99.90
51837;DHT22;38941;53.254;6.600;2023-01-30T03:16:32;6.70;99.90
51837;DHT22;38941;53.254;6.600;2023-01-30T03:18:35;6.80;99.90
51837;DHT22;38941;53.254;6.600;2023-01-30T03:20:40;6.70;99.90
51837;DHT22;38941;53.254;6.600;2023-01-30T03:22:40;6.70;99.90
51837;DHT22;38941;53.254;6.600;2023-01-30T03:24:41;6.70;99.90
51837;DHT22;38941;53.254;6.600;2023-01-30T03:26:47;6.80;99.90
51837;DHT22;38941;53.254;6.600;2023-01-30T03:28:49;6.60;99.90
51837;DHT22;38941;53.254;6.600;2023-01-30T03:30:51;6.60;99.90
51837;DHT22;38941;53.254;6.600;2023-01-30T03:32:52;6.50;99.90
51837;DHT22;38941;53.254;6.600;2023-01-30T03:34:53;6.50;99.90
51837;DHT22;38941;53.254;6.600;2023-01-30T03:36:54;6.40;99.90
51837;DHT22;38941;53.254;6.600;2023-01-30T03:38:55;6.40;99.90
51837;DHT22;38941;53.254;6.600;2023-01-30T03:40:56;6.40;99.90
51837;DHT22;38941;53.254;6.600;2023-01-30T03:42:58;6.40;99.90
51837;DHT22;38941;53.254;6.600;2023-01-30T03:44:59;6.40;99.90
51837;DHT22;38941;53.254;6.600;2023-01-30T03:47:00;6.40;99.90
51837;DHT22;38941;53.254;6.600;2023-01-30T03:49:01;6.30;99.90
51837;DHT22;38941;53.254;6.600;2023-01-30T03:51:02;6.30;99.90
51837;DHT22;38941;53.254;6.600;2023-01-30T03:53:02;6.20;99.90
51837;DHT22;38941;53.254;6.600;2023-01-30T03:55:03;6.20;99.90
51837;DHT22;38941;53.254;6.600;2023-01-30T03:57:04;6.10;99.90
51837;DHT22;38941;53.254;6.600;2023-01-30T03:59:05;6.10;99.90
51837;DHT22;38941;53.254;6.600;2023-01-30T04:01:05;6.10;99.90
51837;DHT22;38941;53.254;6.600;2023-01-30T04:03:06;6.00;99.90
51837;DHT22;38941;53.254;6.600;2023-01-30T04:05:07;6.00;99.90
51837;DHT22;38941;53.254;6.600;2023-01-30T04:07:08;6.00;99.90
51837;DHT22;38941;53.254;6.600;2023-01-30T04:09:09;6.00;99.90
51837;DHT22;38941;53.254;6.600;2023-01-30T04:11:10;5.90;99.90
51837;DHT22;38941;53.254;6.600;2023-01-30T04:13:11;5.90;99.90
51837;DHT22;38941;53.254;6.600;2023-01-30T04:15:13;5.90;99.90
51837;DHT22;38941;53.254;6.600;2023-01-30T04:17:14;5.80;99.90
51837;DHT22;38941;53.254;6.600;2023-01-30T04:19:14;5.90;99.90
51837;DHT22;38941;53.254;6.600;2023-01-30T04:21:15;5.90;99.90
51837;DHT22;38941;53.254;6.600;2023-01-30T04:23:16;5.80;99.90
51837;DHT22;38941;53.254;6.600;2023-01-30T04:25:18;5.80;99.90
51837;DHT22;38941;53.254;6.600;2023-01-30T04:27:18;5.80;99.90
51837;DHT22;38941;53.254;6.600;2023-01-30T04:29:19;5.70;99.90
51837;DHT22;38941;53.254;6.600;2023-01-30T04:31:20;5.70;99.90
51837;DHT22;38941;53.254;6.600;2023-01-30T04:33:22;5.60;99.90
51837;DHT22;38941;53.254;6.600;2023-01-30T04:35:22;5.90;99.90
51837;DHT22;38941;53.254;6.600;2023-01-30T04:37:23;5.60;99.90
51837;DHT22;38941;53.254;6.600;2023-01-30T04:39:25;5.90;99.90
51837;DHT22;38941;53.254;6.600;2023-01-30T04:41:25;5.50;99.90
51837;DHT22;38941;53.254;6.600;2023-01-30T04:43:28;5.50;99.90
51837;DHT22;38941;53.254;6.600;2023-01-30T04:45:29;5.40;99.90
51837;DHT22;38941;53.254;6.600;2023-01-30T04:47:30;6.10;99.90
51837;DHT22;38941;53.254;6.600;2023-01-30T04:49:32;5.40;99.90
51837;DHT22;38941;53.254;6.600;2023-01-30T04:51:32;5.70;99.90
51837;DHT22;38941;53.254;6.600;2023-01-30T04:53:33;5.60;99.90
51837;DHT22;38941;53.254;6.600;2023-01-30T04:55:34;5.30;99.90
51837;DHT22;38941;53.254;6.600;2023-01-30T04:57:36;5.30;99.90
51837;DHT22;38941;53.254;6.600;2023-01-30T04:59:37;6.00;99.90
51837;DHT22;38941;53.254;6.600;2023-01-30T05:01:39;5.70;99.90
51837;DHT22;38941;53.254;6.600;2023-01-30T05:03:41;5.40;99.90
51837;DHT22;38941;53.254;6.600;2023-01-30T05:05:42;5.40;99.90
51837;DHT22;38941;53.254;6.600;2023-01-30T05:07:46;5.40;99.90
51837;DHT22;38941;53.254;6.600;2023-01-30T05:09:47;5.40;99.90
51837;DHT22;38941;53.254;6.600;2023-01-30T05:11:47;5.40;99.90
51837;DHT22;38941;53.254;6.600;2023-01-30T05:13:48;5.70;99.90
51837;DHT22;38941;53.254;6.600;2023-01-30T05:15:49;5.30;99.90
51837;DHT22;38941;53.254;6.600;2023-01-30T05:17:50;5.40;99.90
51837;DHT22;38941;53.254;6.600;2023-01-30T05:19:50;5.30;99.90
51837;DHT22;38941;53.254;6.600;2023-01-30T05:21:52;5.30;99.90
51837;DHT22;38941;53.254;6.600;2023-01-30T05:23:54;5.30;99.90
51837;DHT22;38941;53.254;6.600;2023-01-30T05:25:55;5.30;99.90
51837;DHT22;38941;53.254;6.600;2023-01-30T05:27:57;5.20;99.90
51837;DHT22;38941;53.254;6.600;2023-01-30T05:29:59;5.30;99.90
51837;DHT22;38941;53.254;6.600;2023-01-30T05:31:59;5.30;99.90
51837;DHT22;38941;53.254;6.600;2023-01-30T05:34:00;5.30;99.90
51837;DHT22;38941;53.254;6.600;2023-01-30T05:36:01;5.30;99.90
51837;DHT22;38941;53.254;6.600;2023-01-30T05:38:01;5.30;99.90
51837;DHT22;38941;53.254;6.600;2023-01-30T05:40:03;5.30;99.90
51837;DHT22;38941;53.254;6.600;2023-01-30T05:42:04;5.20;99.90
51837;DHT22;38941;53.254;6.600;2023-01-30T05:44:05;5.20;99.90
51837;DHT22;38941;53.254;6.600;2023-01-30T05:46:06;5.20;99.90
51837;DHT22;38941;53.254;6.600;2023-01-30T05:48:09;5.10;99.90
51837;DHT22;38941;53.254;6.600;2023-01-30T05:50:10;5.20;99.90
51837;DHT22;38941;53.254;6.600;2023-01-30T05:52:12;5.20;99.90
51837;DHT22;38941;53.254;6.600;2023-01-30T05:54:13;5.20;99.90
51837;DHT22;38941;53.254;6.600;2023-01-30T05:56:15;5.20;99.90
51837;DHT22;38941;53.254;6.600;2023-01-30T05:58:15;5.20;99.90
51837;DHT22;38941;53.254;6.600;2023-01-30T06:00:16;5.40;99.90
51837;DHT22;38941;53.254;6.600;2023-01-30T06:02:17;5.20;99.90
51837;DHT22;38941;53.254;6.600;2023-01-30T06:04:18;5.40;99.90
51837;DHT22;38941;53.254;6.600;2023-01-30T06:06:21;5.50;99.90
51837;DHT22;38941;53.254;6.600;2023-01-30T06:08:22;5.20;99.90
51837;DHT22;38941;53.254;6.600;2023-01-30T06:10:23;5.20;99.90
51837;DHT22;38941;53.254;6.600;2023-01-30T06:12:23;5.30;99.90
51837;DHT22;38941;53.254;6.600;2023-01-30T06:14:25;5.20;99.90
51837;DHT22;38941;53.254;6.600;2023-01-30T06:16:26;5.30;99.90
51837;DHT22;38941;53.254;6.600;2023-01-30T06:18:26;5.30;99.90
51837;DHT22;38941;53.254;6.600;2023-01-30T06:20:28;5.40;99.90
51837;DHT22;38941;53.254;6.600;2023-01-30T06:22:29;5.40;99.90
51837;DHT22;38941;53.254;6.600;2023-01-30T06:24:29;5.40;99.90
51837;DHT22;38941;53.254;6.600;2023-01-30T06:26:31;5.70;99.90
51837;DHT22;38941;53.254;6.600;2023-01-30T06:28:33;5.50;99.90
51837;DHT22;38941;53.254;6.600;2023-01-30T06:30:33;5.50;99.90
51837;DHT22;38941;53.254;6.600;2023-01-30T06:32:34;5.50;99.90
51837;DHT22;38941;53.254;6.600;2023-01-30T06:34:34;5.50;99.90
51837;DHT22;38941;53.254;6.600;2023-01-30T06:36:35;5.50;99.90
51837;DHT22;38941;53.254;6.600;2023-01-30T06:38:36;5.60;99.90
51837;DHT22;38941;53.254;6.600;2023-01-30T06:40:37;5.50;99.90
51837;DHT22;38941;53.254;6.600;2023-01-30T06:42:44;5.70;99.90
51837;DHT22;38941;53.254;6.600;2023-01-30T06:44:44;5.90;99.90
51837;DHT22;38941;53.254;6.600;2023-01-30T06:46:45;5.60;99.90
51837;DHT22;38941;53.254;6.600;2023-01-30T06:48:46;5.60;99.90
51837;DHT22;38941;53.254;6.600;2023-01-30T06:50:46;5.60;99.90
51837;DHT22;38941;53.254;6.600;2023-01-30T06:52:48;5.60;99.90
51837;DHT22;38941;53.254;6.600;2023-01-30T06:54:50;5.60;99.90
51837;DHT22;38941;53.254;6.600;2023-01-30T06:56:50;5.60;99.90
51837;DHT22;38941;53.254;6.600;2023-01-30T06:58:51;5.60;99.90
51837;DHT22;38941;53.254;6.600;2023-01-30T07:00:53;5.60;99.90
51837;DHT22;38941;53.254;6.600;2023-01-30T07:02:53;5.60;99.90
51837;DHT22;38941;53.254;6.600;2023-01-30T07:04:54;5.60;99.90
51837;DHT22;38941;53.254;6.600;2023-01-30T07:06:57;5.60;99.90
51837;DHT22;38941;53.254;6.600;2023-01-30T07:08:57;5.60;99.90
51837;DHT22;38941;53.254;6.600;2023-01-30T07:10:58;5.70;99.90
51837;DHT22;38941;53.254;6.600;2023-01-30T07:12:59;5.60;99.90
51837;DHT22;38941;53.254;6.600;2023-01-30T07:14:59;5.70;99.90
51837;DHT22;38941;53.254;6.600;2023-01-30T07:17:00;5.60;99.90
51837;DHT22;38941;53.254;6.600;2023-01-30T07:19:01;5.80;99.90
51837;DHT22;38941;53.254;6.600;2023-01-30T07:21:01;5.60;99.90
51837;DHT22;38941;53.254;6.600;2023-01-30T07:23:03;5.70;99.90
51837;DHT22;38941;53.254;6.600;2023-01-30T07:25:04;5.60;99.90
51837;DHT22;38941;53.254;6.600;2023-01-30T07:27:06;5.60;99.90
51837;DHT22;38941;53.254;6.600;2023-01-30T07:29:07;5.60;99.90
51837;DHT22;38941;53.254;6.600;2023-01-30T07:31:08;5.70;99.90
51837;DHT22;38941;53.254;6.600;2023-01-30T07:33:09;5.60;99.90
51837;DHT22;38941;53.254;6.600;2023-01-30T07:35:11;5.70;99.90
51837;DHT22;38941;53.254;6.600;2023-01-30T07:37:11;5.70;99.90
51837;DHT22;38941;53.254;6.600;2023-01-30T07:39:12;5.70;99.90
51837;DHT22;38941;53.254;6.600;2023-01-30T07:41:13;5.80;99.90
51837;DHT22;38941;53.254;6.600;2023-01-30T07:43:13;5.70;99.90
51837;DHT22;38941;53.254;6.600;2023-01-30T07:45:14;5.80;99.90
51837;DHT22;38941;53.254;6.600;2023-01-30T07:47:15;5.80;99.90
51837;DHT22;38941;53.254;6.600;2023-01-30T07:49:16;5.80;99.90
51837;DHT22;38941;53.254;6.600;2023-01-30T07:51:17;5.80;99.90
51837;DHT22;38941;53.254;6.600;2023-01-30T07:53:18;5.80;99.90
51837;DHT22;38941;53.254;6.600;2023-01-30T07:55:18;5.80;99.90
51837;DHT22;38941;53.254;6.600;2023-01-30T07:57:19;5.90;99.90
51837;DHT22;38941;53.254;6.600;2023-01-30T07:59:20;5.90;99.90
51837;DHT22;38941;53.254;6.600;2023-01-30T08:01:21;5.90;99.90
51837;DHT22;38941;53.254;6.600;2023-01-30T08:03:23;6.20;99.90
51837;DHT22;38941;53.254;6.600;2023-01-30T08:05:24;5.90;99.90
51837;DHT22;38941;53.254;6.600;2023-01-30T08:07:25;6.10;99.90
51837;DHT22;38941;53.254;6.600;2023-01-30T08:09:25;6.00;99.90
51837;DHT22;38941;53.254;6.600;2023-01-30T08:11:26;6.00;99.90
51837;DHT22;38941;53.254;6.600;2023-01-30T08:13:28;6.00;99.90
51837;DHT22;38941;53.254;6.600;2023-01-30T08:15:29;6.00;99.90
51837;DHT22;38941;53.254;6.600;2023-01-30T08:17:31;6.00;99.90
51837;DHT22;38941;53.254;6.600;2023-01-30T08:19:32;6.00;99.90
51837;DHT22;38941;53.254;6.600;2023-01-30T08:21:32;6.00;99.90
51837;DHT22;38941;53.254;6.600;2023-01-30T08:23:33;6.10;99.90
51837;DHT22;38941;53.254;6.600;2023-01-30T08:25:34;6.00;99.90
51837;DHT22;38941;53.254;6.600;2023-01-30T08:27:35;6.10;99.90
51837;DHT22;38941;53.254;6.600;2023-01-30T08:29:35;6.10;99.90
51837;DHT22;38941;53.254;6.600;2023-01-30T08:31:36;6.10;99.90
51837;DHT22;38941;53.254;6.600;2023-01-30T08:33:38;6.10;99.90
51837;DHT22;38941;53.254;6.600;2023-01-30T08:35:40;6.10;99.90
51837;DHT22;38941;53.254;6.600;2023-01-30T08:37:41;6.10;99.90
51837;DHT22;38941;53.254;6.600;2023-01-30T08:39:41;6.10;99.90
51837;DHT22;38941;53.254;6.600;2023-01-30T08:41:42;6.30;99.90
51837;DHT22;38941;53.254;6.600;2023-01-30T08:43:44;6.20;99.90
51837;DHT22;38941;53.254;6.600;2023-01-30T08:45:45;6.30;99.90
51837;DHT22;38941;53.254;6.600;2023-01-30T08:47:46;6.30;99.90
51837;DHT22;38941;53.254;6.600;2023-01-30T08:49:47;6.30;99.90
51837;DHT22;38941;53.254;6.600;2023-01-30T08:51:48;6.30;99.90
51837;DHT22;38941;53.254;6.600;2023-01-30T08:53:48;6.30;99.90
51837;DHT22;38941;53.254;6.600;2023-01-30T08:55:51;6.40;99.90
51837;DHT22;38941;53.254;6.600;2023-01-30T08:57:55;6.40;99.90
51837;DHT22;38941;53.254;6.600;2023-01-30T08:59:56;6.40;99.90
51837;DHT22;38941;53.254;6.600;2023-01-30T09:01:56;6.40;99.90
51837;DHT22;38941;53.254;6.600;2023-01-30T09:03:58;6.50;99.90
51837;DHT22;38941;53.254;6.600;2023-01-30T09:05:59;6.50;99.90
51837;DHT22;38941;53.254;6.600;2023-01-30T09:08:00;6.50;99.90
51837;DHT22;38941;53.254;6.600;2023-01-30T09:10:01;6.60;99.90
51837;DHT22;38941;53.254;6.600;2023-01-30T09:12:02;6.50;99.90
51837;DHT22;38941;53.254;6.600;2023-01-30T09:14:03;6.50;99.90
51837;DHT22;38941;53.254;6.600;2023-01-30T09:16:05;6.50;99.90
51837;DHT22;38941;53.254;6.600;2023-01-30T09:18:07;6.50;99.90
51837;DHT22;38941;53.254;6.600;2023-01-30T09:20:08;6.50;99.90
51837;DHT22;38941;53.254;6.600;2023-01-30T09:22:10;6.50;99.90
51837;DHT22;38941;53.254;6.600;2023-01-30T09:24:12;6.50;99.90
51837;DHT22;38941;53.254;6.600;2023-01-30T09:26:13;6.60;99.90
51837;DHT22;38941;53.254;6.600;2023-01-30T09:28:13;6.50;99.90
51837;DHT22;38941;53.254;6.600;2023-01-30T09:30:14;6.60;99.90
51837;DHT22;38941;53.254;6.600;2023-01-30T09:32:15;6.50;99.90
51837;DHT22;38941;53.254;6.600;2023-01-30T09:34:16;6.50;99.90
51837;DHT22;38941;53.254;6.600;2023-01-30T09:36:18;6.50;99.90
51837;DHT22;38941;53.254;6.600;2023-01-30T09:38:19;6.40;99.90
51837;DHT22;38941;53.254;6.600;2023-01-30T09:40:24;6.40;99.90
51837;DHT22;38941;53.254;6.600;2023-01-30T09:42:49;6.40;99.90
51837;DHT22;38941;53.254;6.600;2023-01-30T09:54:25;6.90;99.90
51837;DHT22;38941;53.254;6.600;2023-01-30T09:56:28;7.00;99.90
51837;DHT22;38941;53.254;6.600;2023-01-30T09:58:41;7.20;99.90
51837;DHT22;38941;53.254;6.600;2023-01-30T10:00:44;7.60;99.90
51837;DHT22;38941;53.254;6.600;2023-01-30T10:02:54;8.10;99.90
51837;DHT22;38941;53.254;6.600;2023-01-30T10:04:57;8.00;99.90
51837;DHT22;38941;53.254;6.600;2023-01-30T10:07:47;7.80;99.90
51837;DHT22;38941;53.254;6.600;2023-01-30T10:20:52;8.00;99.90
51837;DHT22;38941;53.254;6.600;2023-01-30T10:27:50;7.50;99.90
51837;DHT22;38941;53.254;6.600;2023-01-30T10:29:54;7.10;99.90
51837;DHT22;38941;53.254;6.600;2023-01-30T10:32:13;6.80;99.90
51837;DHT22;38941;53.254;6.600;2023-01-30T10:34:23;6.60;99.90
51837;DHT22;38941;53.254;6.600;2023-01-30T10:36:41;6.70;99.90
51837;DHT22;38941;53.254;6.600;2023-01-30T10:38:50;6.60;99.90
51837;DHT22;38941;53.254;6.600;2023-01-30T10:45:16;6.30;99.90
51837;DHT22;38941;53.254;6.600;2023-01-30T10:47:28;6.30;99.90
51837;DHT22;38941;53.254;6.600;2023-01-30T10:49:46;6.60;99.90
51837;DHT22;38941;53.254;6.600;2023-01-30T10:52:00;7.00;99.90
51837;DHT22;38941;53.254;6.600;2023-01-30T10:54:13;7.40;99.90
51837;DHT22;38941;53.254;6.600;2023-01-30T10:56:23;7.60;99.90
51837;DHT22;38941;53.254;6.600;2023-01-30T10:58:39;7.90;99.90
51837;DHT22;38941;53.254;6.600;2023-01-30T11:01:06;8.10;99.90
51837;DHT22;38941;53.254;6.600;2023-01-30T11:05:26;8.40;99.90
51837;DHT22;38941;53.254;6.600;2023-01-30T11:07:31;8.60;99.90
51837;DHT22;38941;53.254;6.600;2023-01-30T11:09:47;8.70;99.90
51837;DHT22;38941;53.254;6.600;2023-01-30T11:11:50;8.90;99.90
51837;DHT22;38941;53.254;6.600;2023-01-30T11:14:06;9.10;99.90
51837;DHT22;38941;53.254;6.600;2023-01-30T11:16:08;9.20;99.90
51837;DHT22;38941;53.254;6.600;2023-01-30T11:18:09;9.30;99.90
51837;DHT22;38941;53.254;6.600;2023-01-30T11:20:19;9.30;99.90
51837;DHT22;38941;53.254;6.600;2023-01-30T11:22:23;9.20;99.90
51837;DHT22;38941;53.254;6.600;2023-01-30T11:24:31;9.10;99.90
51837;DHT22;38941;53.254;6.600;2023-01-30T11:26:34;9.30;99.90
51837;DHT22;38941;53.254;6.600;2023-01-30T11:28:40;9.40;99.90
51837;DHT22;38941;53.254;6.600;2023-01-30T11:30:42;9.30;99.90
51837;DHT22;38941;53.254;6.600;2023-01-30T11:32:46;9.10;99.90
51837;DHT22;38941;53.254;6.600;2023-01-30T11:35:03;9.00;99.90
51837;DHT22;38941;53.254;6.600;2023-01-30T11:37:23;8.80;99.90
51837;DHT22;38941;53.254;6.600;2023-01-30T11:39:28;8.60;99.90
51837;DHT22;38941;53.254;6.600;2023-01-30T11:41:29;8.50;99.90
51837;DHT22;38941;53.254;6.600;2023-01-30T11:43:35;8.40;99.90
51837;DHT22;38941;53.254;6.600;2023-01-30T11:45:45;8.50;99.90
51837;DHT22;38941;53.254;6.600;2023-01-30T11:47:57;8.60;99.90
51837;DHT22;38941;53.254;6.600;2023-01-30T11:49:59;8.60;99.90
51837;DHT22;38941;53.254;6.600;2023-01-30T11:52:03;8.50;99.90
51837;DHT22;38941;53.254;6.600;2023-01-30T11:54:07;8.50;99.90
51837;DHT22;38941;53.254;6.600;2023-01-30T11:56:24;8.40;99.90
51837;DHT22;38941;53.254;6.600;2023-01-30T11:58:30;8.30;99.90
51837;DHT22;38941;53.254;6.600;2023-01-30T12:00:41;8.20;99.90
51837;DHT22;38941;53.254;6.600;2023-01-30T12:02:44;8.20;99.90
51837;DHT22;38941;53.254;6.600;2023-01-30T12:04:50;8.20;99.90
51837;DHT22;38941;53.254;6.600;2023-01-30T12:07:15;8.20;99.90
51837;DHT22;38941;53.254;6.600;2023-01-30T12:09:34;8.20;99.90
51837;DHT22;38941;53.254;6.600;2023-01-30T12:13:40;8.50;99.90
51837;DHT22;38941;53.254;6.600;2023-01-30T12:15:45;8.50;99.90
51837;DHT22;38941;53.254;6.600;2023-01-30T12:20:19;8.70;99.90
51837;DHT22;38941;53.254;6.600;2023-01-30T12:22:57;8.80;99.90
51837;DHT22;38941;53.254;6.600;2023-01-30T12:25:09;8.80;99.90
51837;DHT22;38941;53.254;6.600;2023-01-30T12:27:21;8.90;99.90
51837;DHT22;38941;53.254;6.600;2023-01-30T12:29:35;8.90;99.90
51837;DHT22;38941;53.254;6.600;2023-01-30T12:31:47;8.90;99.90
51837;DHT22;38941;53.254;6.600;2023-01-30T12:33:49;8.80;99.90
51837;DHT22;38941;53.254;6.600;2023-01-30T12:44:56;9.30;99.90
51837;DHT22;38941;53.254;6.600;2023-01-30T12:49:43;9.30;99.90
51837;DHT22;38941;53.254;6.600;2023-01-30T12:59:10;9.20;99.90
51837;DHT22;38941;53.254;6.600;2023-01-30T13:01:27;9.30;99.90
51837;DHT22;38941;53.254;6.600;2023-01-30T13:06:09;9.40;99.90
51837;DHT22;38941;53.254;6.600;2023-01-30T13:13:29;9.60;99.90
51837;DHT22;38941;53.254;6.600;2023-01-30T13:18:24;9.60;99.90
51837;DHT22;38941;53.254;6.600;2023-01-30T13:23:03;9.70;99.90
51837;DHT22;38941;53.254;6.600;2023-01-30T13:27:09;9.40;99.90
51837;DHT22;38941;53.254;6.600;2023-01-30T13:29:29;9.40;99.90
51837;DHT22;38941;53.254;6.600;2023-01-30T13:31:34;9.50;99.90
51837;DHT22;38941;53.254;6.600;2023-01-30T13:33:41;9.60;99.90
51837;DHT22;38941;53.254;6.600;2023-01-30T13:35:53;9.50;99.90
51837;DHT22;38941;53.254;6.600;2023-01-30T13:37:56;9.30;99.90
51837;DHT22;38941;53.254;6.600;2023-01-30T13:40:19;9.10;99.90
51837;DHT22;38941;53.254;6.600;2023-01-30T13:44:50;9.00;99.90
51837;DHT22;38941;53.254;6.600;2023-01-30T13:46:53;9.00;99.90
51837;DHT22;38941;53.254;6.600;2023-01-30T13:48:58;8.90;99.90
51837;DHT22;38941;53.254;6.600;2023-01-30T13:51:35;8.90;99.90
51837;DHT22;38941;53.254;6.600;2023-01-30T13:58:57;9.60;99.90
51837;DHT22;38941;53.254;6.600;2023-01-30T14:01:01;9.90;99.90
51837;DHT22;38941;53.254;6.600;2023-01-30T14:05:08;10.20;99.90
51837;DHT22;38941;53.254;6.600;2023-01-30T14:07:15;10.30;99.90
51837;DHT22;38941;53.254;6.600;2023-01-30T14:09:25;10.40;99.90
51837;DHT22;38941;53.254;6.600;2023-01-30T14:11:36;10.60;99.90
51837;DHT22;38941;53.254;6.600;2023-01-30T14:13:50;10.70;99.90
51837;DHT22;38941;53.254;6.600;2023-01-30T14:16:01;10.80;99.90
51837;DHT22;38941;53.254;6.600;2023-01-30T14:18:04;10.80;99.90
51837;DHT22;38941;53.254;6.600;2023-01-30T14:20:19;10.90;99.90
51837;DHT22;38941;53.254;6.600;2023-01-30T14:22:24;11.00;99.90
51837;DHT22;38941;53.254;6.600;2023-01-30T14:24:26;11.10;99.90
51837;DHT22;38941;53.254;6.600;2023-01-30T14:28:49;11.10;99.90
51837;DHT22;38941;53.254;6.600;2023-01-30T14:30:52;11.10;99.90
51837;DHT22;38941;53.254;6.600;2023-01-30T14:32:54;10.90;99.90
51837;DHT22;38941;53.254;6.600;2023-01-30T14:39:39;10.10;99.90
51837;DHT22;38941;53.254;6.600;2023-01-30T14:41:40;10.20;99.90
51837;DHT22;38941;53.254;6.600;2023-01-30T14:46:01;10.20;99.90
51837;DHT22;38941;53.254;6.600;2023-01-30T14:50:23;10.50;99.90
51837;DHT22;38941;53.254;6.600;2023-01-30T14:52:44;10.60;99.90
51837;DHT22;38941;53.254;6.600;2023-01-30T14:54:48;10.60;99.90
51837;DHT22;38941;53.254;6.600;2023-01-30T14:56:53;10.50;99.90
51837;DHT22;38941;53.254;6.600;2023-01-30T14:59:01;10.30;99.90
51837;DHT22;38941;53.254;6.600;2023-01-30T15:01:03;9.90;99.90
51837;DHT22;38941;53.254;6.600;2023-01-30T15:03:16;9.50;99.90
51837;DHT22;38941;53.254;6.600;2023-01-30T15:05:33;9.10;99.90
51837;DHT22;38941;53.254;6.600;2023-01-30T15:07:49;8.80;99.90
51837;DHT22;38941;53.254;6.600;2023-01-30T15:10:04;8.40;99.90
51837;DHT22;38941;53.254;6.600;2023-01-30T15:17:20;7.80;99.90
51837;DHT22;38941;53.254;6.600;2023-01-30T15:21:53;7.60;99.90
51837;DHT22;38941;53.254;6.600;2023-01-30T15:26:12;7.50;99.90